Aeroporto :
LOGIN :

Iscrizione | Disclaimer

   EN    FR    IT 

 










Sommario :    VFR   VFR Marginale   IFR   IFR Intensivo   IFR Molto Intensivo
Visibilità : 
Base nubi : 
>= 8 km
>= 3000ft
5 / 8 km
1000 / 3000 ft
1500m / 5 km
500 / 1000 ft
800 / 1500m
200 / 500 ft
< 800m
< 200 ft
Simboli :   Temporali  Nebbia  Neve Forte  Precipitazioni Forti  Vento > 20 kt
SIGMETs :   Varie  Temporali  Ghiacco  Turbolenza  Onda orograficha  Ceneri Vulcaniche







- Altitudine del aeroporto : 218 ft
- Codice IATA : LBG
- Carte del aeroporto


LFPB - Paris / Le Bourget

ULTIMO METAR :
  • 161100Z AUTO VRB02KT CAVOK 12/03 Q1027 NOSIG

METARs OBSOLETI :
  • 161030Z AUTO VRB03KT CAVOK 10/03 Q1027 NOSIG
  • 161000Z AUTO VRB02KT 7000 NSC 09/04 Q1027 NOSIG
  • 160930Z AUTO 00000KT 6000 NSC 07/03 Q1027 NOSIG
  • 160900Z AUTO VRB01KT 6000 NSC 05/03 Q1027 NOSIG
  • 160830Z AUTO 09003KT 5000 BR NSC 04/03 Q1027 NOSIG
  • 160800Z AUTO 09004KT 3900 BR NSC 02/01 Q1027 BECMG 9999 NSW

TAF TAF LFPB
Valido dal 16 a 06 ore il 17 a 06 ore UTC


160500Z 1606/1706 14005KT 3000 BR NSC
TEMPO 1606/1609 1200 BR
PROB30
TEMPO 1607/1609 0800 FG
BECMG 1609/1611 CAVOK
PROB40
TEMPO 1703/1706 3000 BR
ATIS : +33 1 48 62 43 92
Nessun NOTAM noto per questo aeroporto.



MetMap, La meteo Aeronautica in un colpo d'occhio ! - Copyright ORBIFLY Dicembre 2007 - Disclaimer

ORBIFLY MET'MAP TEAM :

Programmazione e sviluppo : Alexandra Zaïnal
Concezione e sviluppo : Baudouin d'Aumeries
Co-Programmazione e sviluppo : Marc-Olivier Méhu
Supporto tecnico e logistico : Manuel Goepfert
Aiuto per la traduzione : Arnaldo La Scala

Contatto : metmap@orbifly.com




FONTI E CREDITI :

   NOAA